Time;durP1;ratioP1;P1;durP2;ratioP2;P2;SDS_P1;SDS_P2;PMS_P1;PMS_P2;Temp;Humidity;BMP_temperature;BMP_pressure;BME280_temperature;BME280_humidity;BME280_pressure;Samples;Min_cycle;Max_cycle;Signal;HPM_P1;HPM_P2
2022/12/14 00:00:50;;;;;;;9.00;6.00;;;;;;;9.33;77.18;97172.72;5092225;28;20066;-49
2022/12/14 00:03:16;;;;;;;9.38;6.10;;;;;;;9.26;78.04;97162.38;5091853;28;20039;-49
2022/12/14 00:05:42;;;;;;;8.18;5.82;;;;;;;9.20;78.31;97156.22;5091935;28;20016;-49
2022/12/14 00:08:09;;;;;;;10.18;6.18;;;;;;;9.12;78.09;97148.72;5091925;28;20055;-49
2022/12/14 00:10:36;;;;;;;6.93;5.20;;;;;;;9.05;77.80;97142.00;5090887;28;20085;-49
2022/12/14 00:13:03;;;;;;;11.55;6.38;;;;;;;9.03;78.21;97147.47;5090545;28;20023;-49
2022/12/14 00:15:29;;;;;;;10.77;5.90;;;;;;;9.05;78.33;97148.03;5093878;28;20024;-49
2022/12/14 00:17:54;;;;;;;10.43;6.70;;;;;;;9.08;77.75;97136.31;5094766;28;20020;-49
2022/12/14 00:20:20;;;;;;;9.88;7.85;;;;;;;9.03;77.68;97150.06;5095938;28;20370;-49
2022/12/14 00:22:46;;;;;;;13.63;12.23;;;;;;;9.13;78.27;97150.28;5077614;28;20036;-49
2022/12/14 00:25:12;;;;;;;14.57;12.93;;;;;;;9.28;77.22;97151.66;5095830;28;20059;-49
2022/12/14 00:27:45;;;;;;;11.63;8.52;;;;;;;9.47;76.98;97153.09;5095872;28;20054;-49
2022/12/14 00:30:16;;;;;;;9.75;8.00;;;;;;;9.60;75.55;97144.22;5095851;28;20146;-49
2022/12/14 00:32:42;;;;;;;12.30;6.85;;;;;;;9.78;74.77;97159.75;5095806;28;20041;-49
2022/12/14 00:35:09;;;;;;;15.43;8.52;;;;;;;9.91;74.26;97155.28;5095973;28;20024;-49
2022/12/14 00:37:35;;;;;;;9.20;6.80;;;;;;;9.95;72.85;97151.94;5094354;28;20020;-49
2022/12/14 00:40:01;;;;;;;10.10;7.35;;;;;;;9.80;71.80;97162.16;5094588;28;20501;-49
2022/12/14 00:42:27;;;;;;;11.57;7.22;;;;;;;9.31;72.09;97151.19;5094269;28;20106;-49
2022/12/14 00:44:52;;;;;;;9.27;7.72;;;;;;;8.91;72.77;97144.84;5094192;28;20107;-49
2022/12/14 00:47:18;;;;;;;13.55;8.48;;;;;;;8.61;74.25;97152.78;5095462;28;20028;-49
2022/12/14 00:49:44;;;;;;;1023.35;734.25;;;;;;;8.54;75.25;97150.28;5095524;28;20016;-48
2022/12/14 00:52:09;;;;;;;181.30;100.55;;;;;;;8.67;74.75;97145.84;5094040;28;20514;-49
2022/12/14 00:54:35;;;;;;;63.10;38.58;;;;;;;8.63;75.28;97139.47;5094046;28;20032;-49
2022/12/14 00:57:00;;;;;;;39.38;30.48;;;;;;;8.64;75.57;97141.09;5094004;28;20020;-49
2022/12/14 00:59:26;;;;;;;76.20;42.22;;;;;;;8.59;75.29;97146.97;5094224;28;20027;-49
2022/12/14 01:01:51;;;;;;;36.72;26.77;;;;;;;8.65;75.57;97146.06;5095305;28;20044;-49
2022/12/14 01:04:17;;;;;;;26.35;19.65;;;;;;;8.74;75.03;97151.78;5093755;28;20024;-49
2022/12/14 01:06:47;;;;;;;23.60;14.50;;;;;;;8.67;75.51;97151.09;5095376;28;20490;-49
2022/12/14 01:09:13;;;;;;;15.57;13.30;;;;;;;8.66;75.54;97144.28;5095098;28;20028;-49
2022/12/14 01:11:39;;;;;;;14.15;10.80;;;;;;;8.59;75.48;97146.97;5095071;28;20028;-49
2022/12/14 01:14:05;;;;;;;15.73;11.43;;;;;;;8.51;75.66;97148.13;5095234;28;20020;-49
2022/12/14 01:16:31;;;;;;;14.68;9.63;;;;;;;8.40;76.29;97148.84;5093587;28;20024;-49
2022/12/14 01:18:58;;;;;;;15.30;10.70;;;;;;;8.48;76.72;97150.38;5094967;28;20077;-49
2022/12/14 01:21:25;;;;;;;12.60;9.65;;;;;;;8.66;76.74;97149.50;5094888;28;20539;-49
2022/12/14 01:23:56;;;;;;;14.48;9.00;;;;;;;8.74;75.31;97157.00;5094542;28;20040;-49
2022/12/14 01:26:23;;;;;;;14.95;12.45;;;;;;;8.74;75.73;97154.41;5094548;28;20032;-49
2022/12/14 01:28:52;;;;;;;20.25;12.85;;;;;;;8.89;76.20;97159.19;5093542;28;20485;-49
2022/12/14 01:31:22;;;;;;;15.82;9.82;;;;;;;8.96;75.46;97162.50;5094583;28;20036;-49
2022/12/14 01:33:47;;;;;;;12.93;9.73;;;;;;;8.91;74.30;97147.44;5094656;28;20056;-49
2022/12/14 01:36:16;;;;;;;11.07;9.02;;;;;;;8.64;73.53;97141.88;5093232;28;20450;-49
2022/12/14 01:38:46;;;;;;;20.83;18.77;;;;;;;8.52;74.33;97146.28;5094790;28;20020;-49
2022/12/14 01:41:28;;;;;;;21.92;16.48;;;;;;;8.57;74.67;97144.59;5094525;28;20031;-49
2022/12/14 01:43:57;;;;;;;16.25;11.68;;;;;;;8.68;74.38;97140.41;5093042;28;20051;-49
2022/12/14 01:46:35;;;;;;;13.05;9.77;;;;;;;8.56;73.52;97137.78;5093060;28;20541;-49
2022/12/14 01:49:12;;;;;;;14.68;9.90;;;;;;;8.48;73.82;97137.31;5094261;28;20058;-49
2022/12/14 01:51:42;;;;;;;14.30;9.20;;;;;;;8.37;74.34;97138.84;5094355;28;20044;-49
2022/12/14 01:54:11;;;;;;;32.35;29.33;;;;;;;8.39;74.94;97137.59;5094240;28;20027;-49
2022/12/14 01:56:41;;;;;;;16.75;14.57;;;;;;;8.60;74.66;97131.06;5094246;28;20028;-49
2022/12/14 01:59:13;;;;;;;11.10;8.60;;;;;;;8.73;74.58;97126.63;5092839;28;20035;-49
2022/12/14 02:01:39;;;;;;;11.38;8.15;;;;;;;8.89;74.95;97125.94;5094098;28;20044;-49
2022/12/14 02:04:06;;;;;;;14.00;8.95;;;;;;;9.08;74.76;97121.41;5092677;28;20509;-49
2022/12/14 02:06:35;;;;;;;16.23;10.18;;;;;;;9.20;76.82;97119.56;5092693;28;20085;-49
2022/12/14 02:09:06;;;;;;;8.57;7.40;;;;;;;9.31;76.38;97114.53;5094138;28;20110;-49
2022/12/14 02:11:56;;;;;;;11.15;7.57;;;;;;;9.21;74.25;97102.03;5093916;28;20032;-49
2022/12/14 02:14:23;;;;;;;14.13;8.18;;;;;;;9.10;73.54;97105.50;5093920;28;20028;-48
2022/12/14 02:16:52;;;;;;;12.27;8.73;;;;;;;9.05;72.86;97111.38;5092427;28;20473;-49
2022/12/14 02:19:17;;;;;;;15.27;10.68;;;;;;;9.02;72.73;97108.47;5093718;28;20111;-49
2022/12/14 02:22:04;;;;;;;18.75;8.98;;;;;;;9.09;72.98;97103.88;5092097;28;20569;-50
2022/12/14 02:24:54;;;;;;;15.23;13.63;;;;;;;9.11;71.95;97104.44;5093897;28;20475;-49
2022/12/14 02:27:37;;;;;;;11.48;8.65;;;;;;;8.98;72.17;97093.19;5092258;28;20482;-49
2022/12/14 02:30:11;;;;;;;9.30;7.65;;;;;;;8.71;73.09;97082.44;5092222;28;20028;-49
2022/12/14 02:32:57;;;;;;;13.15;8.07;;;;;;;8.61;74.00;97082.16;5093580;28;20409;-49
2022/12/14 02:35:30;;;;;;;9.50;8.02;;;;;;;8.60;73.21;97084.00;5093457;28;20054;-49
2022/12/14 02:38:24;;;;;;;10.63;8.52;;;;;;;8.37;73.73;97079.53;5091289;28;20378;-49
2022/12/14 02:41:19;;;;;;;10.48;9.38;;;;;;;8.24;73.95;97071.09;5092042;28;20493;-49
2022/12/14 02:43:53;;;;;;;11.48;8.15;;;;;;;8.25;74.50;97075.28;5064024;28;20066;-49
2022/12/14 02:46:31;;;;;;;16.40;8.88;;;;;;;8.28;74.65;97083.47;5092179;28;20401;-49
2022/12/14 02:49:04;;;;;;;13.00;8.75;;;;;;;8.44;75.06;97074.22;5091855;28;20034;-49
2022/12/14 02:51:39;;;;;;;58.88;12.25;;;;;;;8.35;74.71;97075.53;5091867;28;20036;-49
2022/12/14 02:54:30;;;;;;;13.98;8.50;;;;;;;8.26;74.85;97061.22;5093071;28;20059;-49
2022/12/14 02:57:12;;;;;;;11.40;9.05;;;;;;;8.20;74.85;97065.50;5091652;28;20024;-49
2022/12/14 02:59:39;;;;;;;115.25;104.50;;;;;;;8.22;75.20;97062.69;5093307;28;20024;-49
2022/12/14 03:02:05;;;;;;;34.42;30.70;;;;;;;8.30;75.40;97057.91;5091569;28;20470;-49
2022/12/14 03:04:31;;;;;;;38.45;34.53;;;;;;;8.37;74.45;97048.16;5091511;28;20016;-49
2022/12/14 03:07:22;;;;;;;15.45;12.95;;;;;;;8.32;74.31;97049.84;5091505;28;20047;-49
2022/12/14 03:09:48;;;;;;;19.20;16.63;;;;;;;8.15;74.38;97053.13;5092806;28;20092;-49
2022/12/14 03:12:16;;;;;;;14.60;11.43;;;;;;;8.15;77.01;97053.13;5091438;28;20526;-49
2022/12/14 03:14:49;;;;;;;11.77;8.55;;;;;;;8.22;76.29;97045.19;5091387;28;20055;-49
2022/12/14 03:17:18;;;;;;;14.57;9.52;;;;;;;8.30;76.66;97057.13;5092621;28;20040;-49
2022/12/14 03:20:00;;;;;;;12.27;8.00;;;;;;;8.53;76.19;97057.19;5092936;28;20151;-49
2022/12/14 03:22:39;;;;;;;14.02;7.75;;;;;;;8.53;75.38;97048.53;5092427;28;20066;-49
2022/12/14 03:25:13;;;;;;;11.40;7.53;;;;;;;8.62;75.28;97059.47;5092425;28;20108;-49
2022/12/14 03:27:43;;;;;;;;;;;;;;;8.72;75.38;97050.00;5093173;28;20052;-49
2022/12/14 03:30:12;;;;;;;12.02;7.95;;;;;;;8.95;75.08;97051.00;5092379;28;19915;-49
2022/12/14 03:33:01;;;;;;;10.68;7.38;;;;;;;9.10;74.20;97047.91;5092489;28;20089;-49
2022/12/14 03:35:53;;;;;;;22.77;7.80;;;;;;;9.18;73.59;97050.97;5091059;28;20024;-49
2022/12/14 03:38:34;;;;;;;18.40;7.43;;;;;;;9.09;73.53;97038.47;5091031;28;20035;-49
2022/12/14 03:41:21;;;;;;;12.27;7.55;;;;;;;9.08;73.50;97035.06;5092299;28;20039;-49
2022/12/14 03:44:29;;;;;;;10.70;7.53;;;;;;;9.11;73.66;97042.44;5092249;28;20110;-49
2022/12/14 03:47:19;;;;;;;13.30;6.68;;;;;;;9.18;72.72;97045.72;5091772;28;20498;-49
2022/12/14 03:50:00;;;;;;;8.95;7.68;;;;;;;9.02;72.32;97045.66;5090765;28;20190;-49
2022/12/14 03:52:39;;;;;;;10.60;7.93;;;;;;;8.92;73.05;97041.78;5092120;28;20063;-49
2022/12/14 03:55:08;;;;;;;11.40;7.82;;;;;;;8.88;72.49;97037.25;5090760;28;20028;-49
2022/12/14 03:57:58;;;;;;;11.55;8.75;;;;;;;8.69;72.93;97045.25;5092062;28;20040;-48
2022/12/14 04:00:26;;;;;;;14.23;8.20;;;;;;;8.67;73.34;97049.91;5092036;28;20035;-49
2022/12/14 04:03:00;;;;;;;11.30;9.27;;;;;;;8.90;73.11;97051.69;5091980;28;20464;-49
2022/12/14 04:05:39;;;;;;;10.48;9.15;;;;;;;8.90;71.95;97053.53;5090626;28;20035;-49
2022/12/14 04:08:29;;;;;;;11.52;8.25;;;;;;;8.85;72.42;97048.97;5091977;28;20028;-49
2022/12/14 04:19:49;;;;;;;14.65;10.35;;;;;;;8.84;70.86;97046.59;5090844;28;20414;-49
2022/12/14 04:22:20;;;;;;;14.07;10.32;;;;;;;8.84;71.19;97047.38;5091087;28;20048;-49
2022/12/14 04:27:47;;;;;;;18.83;10.63;;;;;;;8.78;69.80;97048.31;5092056;28;20079;-49
2022/12/14 04:30:13;;;;;;;12.98;10.63;;;;;;;8.65;69.78;97045.91;5090516;28;20020;-49
2022/12/14 04:32:54;;;;;;;18.13;10.98;;;;;;;8.52;70.15;97045.13;5091651;28;20140;-49
2022/12/14 04:35:36;;;;;;;19.00;12.70;;;;;;;8.52;70.04;97045.13;5091739;28;20023;-49
2022/12/14 04:38:06;;;;;;;15.55;11.85;;;;;;;8.45;69.50;97039.22;5091748;28;20089;-49
2022/12/14 04:40:41;;;;;;;20.23;11.65;;;;;;;8.37;69.89;97042.13;5090322;28;20137;-49
2022/12/14 04:43:13;;;;;;;15.02;11.45;;;;;;;8.34;69.65;97042.59;5091683;28;20535;-49
2022/12/14 04:45:45;;;;;;;20.17;11.25;;;;;;;8.34;69.59;97037.34;5091656;28;20036;-49
2022/12/14 04:48:24;;;;;;;20.38;14.20;;;;;;;8.12;69.17;97032.66;5091655;28;20035;-49
2022/12/14 04:51:06;;;;;;;16.65;12.60;;;;;;;7.90;70.24;97029.00;5091879;28;20024;-49
2022/12/14 04:53:35;;;;;;;15.32;12.95;;;;;;;7.71;70.60;97042.13;5091603;28;20103;-49
2022/12/14 04:56:06;;;;;;;17.30;13.05;;;;;;;7.61;71.14;97031.41;5091453;28;20103;-48
2022/12/14 04:58:33;;;;;;;16.48;13.20;;;;;;;7.45;71.64;97032.03;5091774;28;20060;-49
2022/12/14 05:01:29;;;;;;;14.95;12.57;;;;;;;7.29;72.62;97038.66;5092483;28;20028;-49
2022/12/14 05:03:57;;;;;;;23.25;15.57;;;;;;;7.28;73.21;97030.03;5095269;28;20106;-49
2022/12/14 05:06:36;;;;;;;18.73;12.60;;;;;;;7.17;72.90;97031.56;5093867;28;20043;-48
2022/12/14 05:09:23;;;;;;;19.85;13.75;;;;;;;7.12;73.41;97035.84;5093872;28;20115;-49
2022/12/14 05:11:55;;;;;;;16.75;10.80;;;;;;;7.24;73.48;97043.72;5093774;28;20043;-48
2022/12/14 05:14:41;;;;;;;19.58;12.50;;;;;;;7.27;73.82;97036.28;5095046;28;20028;-48
2022/12/14 05:17:07;;;;;;;16.58;13.02;;;;;;;7.30;73.59;97027.97;5095042;28;20039;-48
2022/12/14 05:19:33;;;;;;;19.60;13.63;;;;;;;7.33;73.86;97032.78;5094977;28;20196;-49
2022/12/14 05:22:05;;;;;;;16.25;12.50;;;;;;;7.39;73.45;97031.09;5093369;28;20529;-49
2022/12/14 05:24:31;;;;;;;17.27;12.38;;;;;;;7.37;73.09;97041.75;5093466;28;20056;-49
2022/12/14 05:26:56;;;;;;;20.10;12.77;;;;;;;7.30;73.11;97038.41;5110561;28;20518;-49
2022/12/14 05:29:22;;;;;;;16.73;12.93;;;;;;;7.23;73.55;97052.59;5094780;28;20020;-48
2022/12/14 05:31:47;;;;;;;12.95;10.93;;;;;;;7.18;73.82;97046.22;5094697;28;20024;-49
2022/12/14 05:34:13;;;;;;;17.25;12.40;;;;;;;7.12;73.99;97052.31;5094682;28;20085;-49
2022/12/14 05:36:38;;;;;;;16.88;11.90;;;;;;;7.02;74.19;97049.38;5094607;28;20077;-49
2022/12/14 05:39:07;;;;;;;17.08;12.52;;;;;;;6.91;74.76;97048.31;5093504;28;20021;-48
2022/12/14 05:41:32;;;;;;;18.52;12.93;;;;;;;6.89;74.37;97047.72;5093220;28;20024;-49
2022/12/14 05:43:58;;;;;;;18.52;12.93;;;;;;;6.87;75.18;97054.19;5093035;28;20452;-49
2022/12/14 05:46:24;;;;;;;15.80;12.23;;;;;;;6.98;75.93;97046.44;5093085;28;20035;-49
2022/12/14 05:48:49;;;;;;;15.27;11.63;;;;;;;7.17;75.48;97051.66;5094350;28;20028;-49
2022/12/14 05:51:16;;;;;;;15.43;12.68;;;;;;;7.09;74.29;97041.50;5093007;28;20485;-49
2022/12/14 05:53:41;;;;;;;110.65;93.13;;;;;;;6.82;74.73;97043.59;5094350;28;20024;-49
2022/12/14 05:56:08;;;;;;;1093.72;684.67;;;;;;;6.69;75.07;97047.16;5094145;28;20031;-49
2022/12/14 05:58:35;;;;;;;572.70;448.25;;;;;;;6.60;75.15;97050.03;5094162;28;20016;-49
2022/12/14 06:01:02;;;;;;;150.73;98.68;;;;;;;6.55;75.87;97042.03;5092745;28;20024;-49
2022/12/14 06:03:28;;;;;;;51.75;31.13;;;;;;;6.54;75.91;97043.06;5075893;28;20082;-49
2022/12/14 06:06:09;;;;;;;24.02;16.40;;;;;;;6.51;75.94;97037.50;5093974;28;20026;-49
2022/12/14 06:08:37;;;;;;;24.13;17.67;;;;;;;6.37;75.46;97034.19;5094306;28;20495;-49
2022/12/14 06:11:08;;;;;;;24.92;16.88;;;;;;;6.40;76.78;97031.19;5092890;28;20051;-49
2022/12/14 06:13:35;;;;;;;22.98;15.73;;;;;;;6.30;75.81;97036.88;5092750;28;20028;-49
2022/12/14 06:16:13;;;;;;;22.02;16.25;;;;;;;6.22;76.50;97057.16;5093826;28;20035;-49
2022/12/14 06:18:43;;;;;;;23.08;15.13;;;;;;;6.24;76.50;97045.53;5093630;28;20036;-49
2022/12/14 06:21:10;;;;;;;25.88;17.83;;;;;;;6.30;76.44;97038.66;5092428;28;20055;-48
2022/12/14 06:23:36;;;;;;;24.63;18.20;;;;;;;6.35;76.14;97036.22;5092083;28;20131;-49
2022/12/14 06:26:02;;;;;;;28.58;23.75;;;;;;;6.38;76.12;97041.81;5092339;28;20116;-49
2022/12/14 06:28:27;;;;;;;30.23;23.90;;;;;;;6.28;75.49;97040.69;5093615;28;20490;-49
2022/12/14 06:30:53;;;;;;;32.10;24.10;;;;;;;6.26;76.34;97047.91;5093535;28;20020;-49
2022/12/14 06:33:19;;;;;;;33.05;23.65;;;;;;;6.29;76.26;97050.09;5092231;28;20028;-49
2022/12/14 06:35:45;;;;;;;33.60;23.90;;;;;;;6.30;76.02;97049.91;5092137;28;20022;-49
2022/12/14 06:38:13;;;;;;;25.42;20.08;;;;;;;6.23;76.70;97061.38;5093434;28;20020;-49
2022/12/14 06:40:39;;;;;;;31.35;21.55;;;;;;;6.27;76.29;97059.94;5092098;28;20020;-49
2022/12/14 06:43:05;;;;;;;28.20;20.67;;;;;;;6.32;76.28;97060.91;5093343;28;20078;-49
2022/12/14 06:45:30;;;;;;;31.83;22.52;;;;;;;6.43;76.45;97056.00;5091863;28;20012;-49
2022/12/14 06:47:57;;;;;;;30.88;21.85;;;;;;;6.38;77.12;97052.22;5093261;28;20031;-49
2022/12/14 06:50:24;;;;;;;26.65;20.20;;;;;;;6.46;76.96;97045.97;5093182;28;20599;-49
2022/12/14 06:52:50;;;;;;;25.10;18.65;;;;;;;6.56;75.77;97038.44;5093095;28;20032;-49
2022/12/14 06:55:16;;;;;;;30.08;16.70;;;;;;;6.47;75.50;97036.31;5108739;28;20027;-49
2022/12/14 06:57:42;;;;;;;21.83;15.70;;;;;;;6.51;76.51;97040.88;5093320;28;20389;-49
2022/12/14 07:00:11;;;;;;;29.55;17.13;;;;;;;6.65;76.43;97036.34;5091894;28;20031;-49
2022/12/14 07:02:37;;;;;;;24.45;15.02;;;;;;;6.71;76.15;97040.69;5091775;28;20024;-48
2022/12/14 07:05:04;;;;;;;27.35;17.13;;;;;;;6.73;75.75;97049.09;5092797;28;20024;-49
2022/12/14 07:07:33;;;;;;;19.02;13.18;;;;;;;6.81;75.34;97053.22;5092888;28;20032;-48
2022/12/14 07:09:59;;;;;;;17.33;12.07;;;;;;;7.02;76.13;97062.44;5092851;28;20073;-48
2022/12/14 07:12:26;;;;;;;18.05;12.02;;;;;;;7.18;75.32;97063.66;5092818;28;20023;-49
2022/12/14 07:14:53;;;;;;;19.45;11.20;;;;;;;7.27;75.09;97064.19;5092679;28;20099;-49
2022/12/14 07:17:19;;;;;;;27.27;12.27;;;;;;;7.44;74.72;97065.16;5074529;28;20460;-49
2022/12/14 07:19:45;;;;;;;18.20;11.35;;;;;;;7.59;74.15;97075.22;5092676;28;20035;-49
2022/12/14 07:22:11;;;;;;;17.67;12.20;;;;;;;7.62;73.47;97080.00;5092345;28;20044;-49
2022/12/14 07:24:36;;;;;;;16.88;11.48;;;;;;;7.64;72.59;97072.72;5092167;28;20016;-49
2022/12/14 07:27:02;;;;;;;16.98;11.23;;;;;;;7.62;72.66;97077.38;5092506;28;20043;-49
2022/12/14 07:29:28;;;;;;;17.35;13.02;;;;;;;7.71;72.32;97086.50;5092483;28;20126;-49
2022/12/14 07:31:53;;;;;;;18.60;12.15;;;;;;;7.79;71.72;97099.25;5092371;28;20069;-49
2022/12/14 07:34:19;;;;;;;14.60;10.75;;;;;;;7.84;71.39;97097.78;5091056;28;20464;-48
2022/12/14 07:36:49;;;;;;;21.60;13.18;;;;;;;7.96;71.47;97109.88;5092240;28;20024;-49
2022/12/14 07:39:15;;;;;;;18.23;11.05;;;;;;;8.07;71.17;97102.28;5092304;28;20027;-49
2022/12/14 07:41:42;;;;;;;14.02;11.32;;;;;;;8.15;70.09;97099.38;5107902;28;20081;-49
2022/12/14 07:44:08;;;;;;;17.63;12.27;;;;;;;8.18;69.50;97099.69;5092211;28;20062;-49
2022/12/14 07:46:34;;;;;;;18.75;12.02;;;;;;;8.19;69.22;97097.91;5092162;28;20112;-49
2022/12/14 07:49:01;;;;;;;17.77;12.43;;;;;;;8.08;68.47;97104.69;5090958;28;20024;-49
2022/12/14 07:51:33;;;;;;;20.42;13.93;;;;;;;8.10;69.23;97105.25;5090814;28;20019;-49
2022/12/14 07:54:00;;;;;;;14.70;12.07;;;;;;;8.16;68.72;97106.97;5090815;28;20024;-49
2022/12/14 07:56:30;;;;;;;25.63;12.48;;;;;;;8.17;69.07;97105.19;5090741;28;20027;-49
2022/12/14 07:58:57;;;;;;;18.10;11.73;;;;;;;8.22;68.73;97102.69;5090710;28;20244;-49
2022/12/14 08:01:34;;;;;;;23.60;14.10;;;;;;;8.20;69.03;97112.56;5092005;28;20024;-49
2022/12/14 08:04:04;;;;;;;23.38;14.60;;;;;;;8.30;69.02;97119.84;5090641;28;20097;-49
2022/12/14 08:06:30;;;;;;;22.30;15.40;;;;;;;8.37;69.75;97120.53;5091956;28;20032;-49
2022/12/14 08:08:56;;;;;;;20.00;15.25;;;;;;;8.45;71.20;97119.44;5090564;28;20020;-49
2022/12/14 08:11:22;;;;;;;21.83;15.32;;;;;;;8.45;72.64;97125.50;5091915;28;20500;-49
2022/12/14 08:14:00;;;;;;;29.08;15.63;;;;;;;8.27;72.70;97130.75;5091871;28;20489;-49
2022/12/14 08:16:26;;;;;;;614.78;64.68;;;;;;;8.13;74.42;97130.94;5092032;28;20020;-49
2022/12/14 08:18:53;;;;;;;198.43;27.48;;;;;;;8.09;75.77;97126.38;5091772;28;20419;-48
2022/12/14 08:21:21;;;;;;;73.18;16.92;;;;;;;8.03;76.20;97124.66;5091779;28;20035;-49
2022/12/14 08:23:48;;;;;;;89.38;17.10;;;;;;;7.93;76.76;97127.81;5091449;28;20627;-49
2022/12/14 08:26:14;;;;;;;49.28;16.83;;;;;;;7.92;76.92;97118.38;5091655;28;20028;-49
2022/12/14 08:28:40;;;;;;;33.13;15.55;;;;;;;7.74;74.79;97116.59;5107452;28;20016;-49
2022/12/14 08:31:08;;;;;;;23.85;13.60;;;;;;;7.43;76.91;97109.78;5091755;28;20110;-49
2022/12/14 08:33:35;;;;;;;21.45;14.35;;;;;;;7.52;77.01;97119.66;5091723;28;20505;-49
2022/12/14 08:36:09;;;;;;;38.10;15.63;;;;;;;7.56;77.21;97130.47;5092862;28;20016;-49
2022/12/14 08:38:36;;;;;;;19.95;14.02;;;;;;;7.61;76.42;97120.19;5096064;28;20111;-49
2022/12/14 08:41:03;;;;;;;26.23;13.65;;;;;;;7.64;75.22;97121.56;5094502;28;20504;-49
2022/12/14 08:43:29;;;;;;;24.40;13.00;;;;;;;7.51;75.30;97122.53;5095554;28;20162;-49
2022/12/14 08:45:55;;;;;;;23.33;14.02;;;;;;;7.42;77.07;97134.25;5095542;28;20097;-49
2022/12/14 08:48:21;;;;;;;19.92;13.27;;;;;;;7.54;77.69;97137.72;5094287;28;20035;-49
2022/12/14 08:50:46;;;;;;;17.75;12.95;;;;;;;7.78;78.62;97115.13;5095428;28;20567;-49
2022/12/14 08:53:12;;;;;;;25.45;13.73;;;;;;;8.10;78.60;97107.88;5094125;28;20115;-49
2022/12/14 08:55:37;;;;;;;18.27;12.40;;;;;;;8.45;78.11;97115.03;5095419;28;20020;-49
2022/12/14 08:58:03;;;;;;;20.92;12.23;;;;;;;8.79;77.83;97113.47;5095380;28;20032;-49
2022/12/14 09:00:29;;;;;;;19.70;11.48;;;;;;;9.59;77.50;97117.19;5095346;28;20024;-49
2022/12/14 09:02:54;;;;;;;19.48;13.63;;;;;;;10.33;73.79;97115.66;5095304;28;20038;-49
2022/12/14 09:05:20;;;;;;;15.60;12.02;;;;;;;11.03;70.00;97116.19;5095187;28;20024;-49
2022/12/14 09:07:46;;;;;;;16.40;11.05;;;;;;;11.63;71.15;97106.69;5095173;28;20056;-49
2022/12/14 09:10:12;;;;;;;21.10;12.57;;;;;;;12.30;70.31;97111.59;5093783;28;20028;-47
2022/12/14 09:12:38;;;;;;;10.65;4.97;;;;;;;12.39;69.03;97110.09;5095018;28;20024;-47
2022/12/14 09:15:04;;;;;;;16.10;12.65;;;;;;;12.21;69.83;97123.59;5093757;28;20024;-47
2022/12/14 09:17:30;;;;;;;18.55;14.65;;;;;;;11.87;69.28;97123.78;5094950;28;20097;-46
2022/12/14 09:19:56;;;;;;;17.33;13.93;;;;;;;11.63;69.70;97130.34;5093666;28;20494;-46
2022/12/14 09:22:23;;;;;;;19.17;13.30;;;;;;;11.59;70.74;97119.53;5094730;28;20047;-46
2022/12/14 09:24:50;;;;;;;20.45;13.05;;;;;;;11.56;69.41;97130.53;5095107;28;20069;-49
2022/12/14 09:27:16;;;;;;;20.90;13.60;;;;;;;11.37;68.76;97143.97;5094794;28;20016;-49
2022/12/14 09:29:42;;;;;;;22.70;14.65;;;;;;;11.28;68.74;97147.25;5093482;28;20411;-49
2022/12/14 09:32:08;;;;;;;16.02;13.80;;;;;;;11.16;69.07;97150.75;5093421;28;20035;-49
2022/12/14 09:34:33;;;;;;;17.33;13.85;;;;;;;11.06;68.63;97163.75;5093393;28;20124;-49
2022/12/14 09:37:03;;;;;;;15.35;12.50;;;;;;;10.82;68.09;97160.50;5093311;28;20494;-49
2022/12/14 09:39:30;;;;;;;18.52;12.88;;;;;;;10.61;66.00;97156.00;5094627;28;20057;-49
2022/12/14 09:42:36;;;;;;;15.35;12.23;;;;;;;10.30;67.89;97168.56;5094648;28;20024;-48
2022/12/14 09:45:11;;;;;;;16.40;12.45;;;;;;;10.31;68.10;97183.28;5094504;28;20497;-49
2022/12/14 09:47:50;;;;;;;19.90;10.80;;;;;;;10.46;68.35;97172.25;5094231;28;20027;-49
2022/12/14 09:50:19;;;;;;;21.00;11.88;;;;;;;10.52;68.28;97181.81;5093146;28;20276;-49
2022/12/14 09:52:46;;;;;;;15.75;11.75;;;;;;;10.57;68.01;97174.81;5094352;28;20048;-49
2022/12/14 09:55:36;;;;;;;16.92;10.73;;;;;;;10.66;68.31;97175.22;5092984;28;20055;-49
2022/12/14 09:58:13;;;;;;;12.82;10.63;;;;;;;10.79;67.94;97180.16;5092958;28;20052;-49
2022/12/14 10:00:45;;;;;;;14.50;10.30;;;;;;;10.88;68.91;97180.53;5094205;28;20028;-49
2022/12/14 10:03:26;;;;;;;11.38;8.13;;;;;;;11.10;68.95;97183.22;5094165;28;20387;-49
2022/12/14 10:06:22;;;;;;;9.55;6.82;;;;;;;11.42;69.31;97171.34;5094128;28;20052;-49
2022/12/14 10:08:58;;;;;;;12.18;9.38;;;;;;;11.64;69.88;97166.09;5094158;28;20103;-49
2022/12/14 10:11:47;;;;;;;17.33;10.65;;;;;;;11.69;67.66;97163.50;5094001;28;20035;-49
2022/12/14 10:14:48;;;;;;;15.50;10.50;;;;;;;11.52;67.73;97174.09;5094020;28;20111;-49
2022/12/14 10:17:36;;;;;;;12.45;9.32;;;;;;;11.46;67.11;97167.97;5092596;28;20089;-49
2022/12/14 10:20:31;;;;;;;15.23;11.07;;;;;;;11.26;67.02;97163.25;5093840;28;20031;-49
2022/12/14 10:23:00;;;;;;;13.27;10.93;;;;;;;11.31;67.36;97159.91;5081436;28;20533;-49
2022/12/14 10:25:36;;;;;;;15.60;10.75;;;;;;;11.32;66.64;97157.00;5092222;28;20024;-49
2022/12/14 10:28:19;;;;;;;13.82;10.88;;;;;;;11.40;66.23;97167.09;5092334;28;20455;-49
2022/12/14 10:30:47;;;;;;;18.00;10.65;;;;;;;11.53;66.33;97158.09;5092294;28;20073;-49
2022/12/14 10:33:28;;;;;;;14.57;10.13;;;;;;;11.67;66.44;97158.53;5092244;28;20028;-49
2022/12/14 10:36:15;;;;;;;12.27;9.50;;;;;;;11.65;65.62;97163.22;5092218;28;20553;-49
2022/12/14 10:38:58;;;;;;;15.10;9.48;;;;;;;11.54;66.96;97164.91;5093505;28;20032;-47
2022/12/14 10:41:29;;;;;;;12.50;10.60;;;;;;;11.45;67.22;97158.50;5093411;28;20016;-46
2022/12/14 10:44:00;;;;;;;14.90;9.38;;;;;;;11.56;67.96;97162.06;5093271;28;20027;-47
2022/12/14 10:47:04;;;;;;;7.65;6.03;;;;;;;11.71;67.56;97162.25;5093363;28;20506;-49
2022/12/14 10:49:37;;;;;;;13.25;9.13;;;;;;;11.60;67.12;97163.16;5083581;28;20408;-49
2022/12/14 10:52:11;;;;;;;17.08;9.40;;;;;;;11.30;67.76;97164.34;5093480;28;20093;-48
2022/12/14 10:54:51;;;;;;;7.28;5.72;;;;;;;11.47;69.71;97155.63;5093206;28;20024;-49
2022/12/14 10:57:28;;;;;;;37.03;12.68;;;;;;;11.76;71.03;97156.25;5091854;28;20081;-49
2022/12/14 10:59:54;;;;;;;16.65;10.77;;;;;;;11.83;69.63;97163.94;5092385;28;20031;-48
2022/12/14 11:02:27;;;;;;;13.77;10.13;;;;;;;11.83;68.67;97156.88;5091605;28;20032;-49
2022/12/14 11:04:54;;;;;;;11.27;8.23;;;;;;;11.82;69.36;97151.84;5092881;28;20480;-48
2022/12/14 11:07:30;;;;;;;27.98;21.48;;;;;;;11.94;69.68;97155.16;5091528;28;20028;-48
2022/12/14 11:10:14;;;;;;;77.53;69.65;;;;;;;12.06;72.06;97152.41;5092923;28;20047;-49
2022/12/14 11:12:40;;;;;;;20.55;18.38;;;;;;;11.93;73.06;97153.56;5092796;28;20040;-48
2022/12/14 11:15:27;;;;;;;24.63;21.98;;;;;;;11.51;75.35;97154.91;5091460;28;20039;-48
2022/12/14 11:18:10;;;;;;;15.27;10.90;;;;;;;11.24;78.30;97152.19;5092699;28;20402;-48
2022/12/14 11:20:51;;;;;;;22.42;20.30;;;;;;;11.22;80.01;97164.75;5091397;28;20120;-49
2022/12/14 11:23:26;;;;;;;33.67;29.23;;;;;;;11.23;82.40;97158.50;5092428;28;20052;-48
2022/12/14 11:26:01;;;;;;;21.27;19.10;;;;;;;11.26;84.68;97160.63;5091215;28;20054;-49
2022/12/14 11:28:46;;;;;;;6.70;4.05;;;;;;;11.32;86.19;97164.09;5092626;28;20035;-48
2022/12/14 11:31:26;;;;;;;11.35;5.80;;;;;;;11.45;86.10;97161.13;5092506;28;20516;-48
2022/12/14 11:33:55;;;;;;;11.65;7.95;;;;;;;11.44;85.47;97162.16;5092484;28;20562;-48
2022/12/14 11:36:29;;;;;;;8.00;3.70;;;;;;;11.37;86.84;97149.22;5092323;28;20490;-48
2022/12/14 11:38:56;;;;;;;8.93;4.55;;;;;;;11.42;87.42;97122.22;5092566;28;20031;-48
2022/12/14 11:41:22;;;;;;;8.27;3.80;;;;;;;11.55;88.55;97113.97;5092310;28;20047;-48
2022/12/14 11:44:02;;;;;;;10.32;3.13;;;;;;;11.74;88.34;97111.81;5090857;28;20020;-48
2022/12/14 11:46:50;;;;;;;3.67;2.65;;;;;;;11.82;88.13;97123.72;5090953;28;20554;-48
2022/12/14 11:49:37;;;;;;;4.07;2.03;;;;;;;12.01;87.97;97128.66;5092272;28;20078;-48
2022/12/14 11:52:23;;;;;;;5.43;2.60;;;;;;;12.18;90.52;97145.16;5092175;28;20099;-48
2022/12/14 11:54:52;;;;;;;6.53;1.85;;;;;;;12.51;91.58;97143.34;5092148;28;20039;-48
2022/12/14 11:57:22;;;;;;;6.60;2.50;;;;;;;12.81;92.14;97148.03;5092092;28;20454;-48
2022/12/14 11:59:52;;;;;;;3.80;2.10;;;;;;;12.99;91.17;97149.47;5090824;28;20085;-48